sensor_id;sensor_type;location;lat;lon;timestamp;temperature;humidity
14670;DHT22;7423;48.722;9.350;2024-03-02T00:00:50;9.60;99.90
14670;DHT22;7423;48.722;9.350;2024-03-02T00:03:18;9.60;99.90
14670;DHT22;7423;48.722;9.350;2024-03-02T00:05:50;9.60;99.90
14670;DHT22;7423;48.722;9.350;2024-03-02T00:08:24;9.50;99.90
14670;DHT22;7423;48.722;9.350;2024-03-02T00:10:59;9.50;99.90
14670;DHT22;7423;48.722;9.350;2024-03-02T00:13:27;9.50;99.90
14670;DHT22;7423;48.722;9.350;2024-03-02T00:15:55;9.50;99.90
14670;DHT22;7423;48.722;9.350;2024-03-02T00:18:33;9.50;99.90
14670;DHT22;7423;48.722;9.350;2024-03-02T00:21:01;9.50;99.90
14670;DHT22;7423;48.722;9.350;2024-03-02T00:23:31;9.50;99.90
14670;DHT22;7423;48.722;9.350;2024-03-02T00:25:59;9.40;99.90
14670;DHT22;7423;48.722;9.350;2024-03-02T00:28:34;9.40;99.90
14670;DHT22;7423;48.722;9.350;2024-03-02T00:31:03;9.40;99.90
14670;DHT22;7423;48.722;9.350;2024-03-02T00:33:49;9.40;99.90
14670;DHT22;7423;48.722;9.350;2024-03-02T00:36:24;9.30;99.90
14670;DHT22;7423;48.722;9.350;2024-03-02T00:38:53;9.30;99.90
14670;DHT22;7423;48.722;9.350;2024-03-02T00:41:24;9.30;99.90
14670;DHT22;7423;48.722;9.350;2024-03-02T00:43:58;9.30;99.90
14670;DHT22;7423;48.722;9.350;2024-03-02T00:46:29;9.30;99.90
14670;DHT22;7423;48.722;9.350;2024-03-02T00:49:21;9.30;99.90
14670;DHT22;7423;48.722;9.350;2024-03-02T00:51:53;9.30;99.90
14670;DHT22;7423;48.722;9.350;2024-03-02T00:54:26;9.30;99.90
14670;DHT22;7423;48.722;9.350;2024-03-02T00:56:53;9.30;99.90
14670;DHT22;7423;48.722;9.350;2024-03-02T00:59:23;9.30;99.90
14670;DHT22;7423;48.722;9.350;2024-03-02T01:01:50;9.30;99.90
14670;DHT22;7423;48.722;9.350;2024-03-02T01:04:18;9.30;99.90
14670;DHT22;7423;48.722;9.350;2024-03-02T01:06:45;9.20;99.90
14670;DHT22;7423;48.722;9.350;2024-03-02T01:09:13;9.20;99.90
14670;DHT22;7423;48.722;9.350;2024-03-02T01:11:40;9.20;99.90
14670;DHT22;7423;48.722;9.350;2024-03-02T01:14:07;9.20;99.90
14670;DHT22;7423;48.722;9.350;2024-03-02T01:16:34;9.20;99.90
14670;DHT22;7423;48.722;9.350;2024-03-02T01:19:01;9.20;99.90
14670;DHT22;7423;48.722;9.350;2024-03-02T01:21:28;9.20;99.90
14670;DHT22;7423;48.722;9.350;2024-03-02T01:23:55;9.20;99.90
14670;DHT22;7423;48.722;9.350;2024-03-02T01:26:22;9.10;99.90
14670;DHT22;7423;48.722;9.350;2024-03-02T01:28:48;9.10;99.90
14670;DHT22;7423;48.722;9.350;2024-03-02T01:31:15;9.20;99.90
14670;DHT22;7423;48.722;9.350;2024-03-02T01:33:42;9.10;99.90
14670;DHT22;7423;48.722;9.350;2024-03-02T01:36:09;9.20;99.90
14670;DHT22;7423;48.722;9.350;2024-03-02T01:38:36;9.20;99.90
14670;DHT22;7423;48.722;9.350;2024-03-02T01:41:03;9.10;99.90
14670;DHT22;7423;48.722;9.350;2024-03-02T01:43:30;9.20;99.90
14670;DHT22;7423;48.722;9.350;2024-03-02T01:45:57;9.10;99.90
14670;DHT22;7423;48.722;9.350;2024-03-02T01:48:24;9.10;99.90
14670;DHT22;7423;48.722;9.350;2024-03-02T01:50:51;9.10;99.90
14670;DHT22;7423;48.722;9.350;2024-03-02T01:53:19;9.10;99.90
14670;DHT22;7423;48.722;9.350;2024-03-02T01:55:46;9.10;99.90
14670;DHT22;7423;48.722;9.350;2024-03-02T01:58:13;9.20;99.90
14670;DHT22;7423;48.722;9.350;2024-03-02T02:00:40;9.10;99.90
14670;DHT22;7423;48.722;9.350;2024-03-02T02:03:07;9.10;99.90
14670;DHT22;7423;48.722;9.350;2024-03-02T02:05:35;9.10;99.90
14670;DHT22;7423;48.722;9.350;2024-03-02T02:08:02;9.10;99.90
14670;DHT22;7423;48.722;9.350;2024-03-02T02:10:30;9.10;99.90
14670;DHT22;7423;48.722;9.350;2024-03-02T02:12:57;9.00;99.90
14670;DHT22;7423;48.722;9.350;2024-03-02T02:15:29;9.00;99.90
14670;DHT22;7423;48.722;9.350;2024-03-02T02:17:58;9.00;99.90
14670;DHT22;7423;48.722;9.350;2024-03-02T02:20:26;9.00;99.90
14670;DHT22;7423;48.722;9.350;2024-03-02T02:22:56;9.00;99.90
14670;DHT22;7423;48.722;9.350;2024-03-02T02:25:24;8.90;99.90
14670;DHT22;7423;48.722;9.350;2024-03-02T02:27:52;8.90;99.90
14670;DHT22;7423;48.722;9.350;2024-03-02T02:30:25;8.90;99.90
14670;DHT22;7423;48.722;9.350;2024-03-02T02:32:54;8.90;99.90
14670;DHT22;7423;48.722;9.350;2024-03-02T02:35:21;8.80;99.90
14670;DHT22;7423;48.722;9.350;2024-03-02T02:37:49;8.80;99.90
14670;DHT22;7423;48.722;9.350;2024-03-02T02:40:17;8.80;99.90
14670;DHT22;7423;48.722;9.350;2024-03-02T02:42:47;8.80;99.90
14670;DHT22;7423;48.722;9.350;2024-03-02T02:45:15;8.80;99.90
14670;DHT22;7423;48.722;9.350;2024-03-02T02:47:42;8.70;99.90
14670;DHT22;7423;48.722;9.350;2024-03-02T02:50:11;8.70;99.90
14670;DHT22;7423;48.722;9.350;2024-03-02T02:52:39;8.70;99.90
14670;DHT22;7423;48.722;9.350;2024-03-02T02:55:09;8.70;99.90
14670;DHT22;7423;48.722;9.350;2024-03-02T02:57:39;8.70;99.90
14670;DHT22;7423;48.722;9.350;2024-03-02T03:00:13;8.70;99.90
14670;DHT22;7423;48.722;9.350;2024-03-02T03:02:46;8.70;99.90
14670;DHT22;7423;48.722;9.350;2024-03-02T03:05:16;8.60;99.90
14670;DHT22;7423;48.722;9.350;2024-03-02T03:07:44;8.60;99.90
14670;DHT22;7423;48.722;9.350;2024-03-02T03:10:12;8.60;99.90
14670;DHT22;7423;48.722;9.350;2024-03-02T03:12:40;8.50;99.90
14670;DHT22;7423;48.722;9.350;2024-03-02T03:15:09;8.50;99.90
14670;DHT22;7423;48.722;9.350;2024-03-02T03:17:36;8.50;99.90
14670;DHT22;7423;48.722;9.350;2024-03-02T03:20:04;8.50;99.90
14670;DHT22;7423;48.722;9.350;2024-03-02T03:22:33;8.50;99.90
14670;DHT22;7423;48.722;9.350;2024-03-02T03:25:00;8.40;99.90
14670;DHT22;7423;48.722;9.350;2024-03-02T03:27:27;8.40;99.90
14670;DHT22;7423;48.722;9.350;2024-03-02T03:29:54;8.40;99.90
14670;DHT22;7423;48.722;9.350;2024-03-02T03:32:21;8.30;99.90
14670;DHT22;7423;48.722;9.350;2024-03-02T03:34:49;8.30;99.90
14670;DHT22;7423;48.722;9.350;2024-03-02T03:37:16;8.40;99.90
14670;DHT22;7423;48.722;9.350;2024-03-02T03:39:43;8.30;99.90
14670;DHT22;7423;48.722;9.350;2024-03-02T03:42:10;8.30;99.90
14670;DHT22;7423;48.722;9.350;2024-03-02T03:44:37;8.30;99.90
14670;DHT22;7423;48.722;9.350;2024-03-02T03:47:04;8.30;99.90
14670;DHT22;7423;48.722;9.350;2024-03-02T03:49:30;8.30;99.90
14670;DHT22;7423;48.722;9.350;2024-03-02T03:51:58;8.30;99.90
14670;DHT22;7423;48.722;9.350;2024-03-02T03:54:25;8.30;99.90
14670;DHT22;7423;48.722;9.350;2024-03-02T03:56:52;8.20;99.90
14670;DHT22;7423;48.722;9.350;2024-03-02T03:59:19;8.20;99.90
14670;DHT22;7423;48.722;9.350;2024-03-02T04:01:46;8.10;99.90
14670;DHT22;7423;48.722;9.350;2024-03-02T04:04:13;8.10;99.90
14670;DHT22;7423;48.722;9.350;2024-03-02T04:06:40;8.10;99.90
14670;DHT22;7423;48.722;9.350;2024-03-02T04:09:07;8.10;99.90
14670;DHT22;7423;48.722;9.350;2024-03-02T04:11:34;8.10;99.90
14670;DHT22;7423;48.722;9.350;2024-03-02T04:14:00;8.10;99.90
14670;DHT22;7423;48.722;9.350;2024-03-02T04:16:27;8.10;99.90
14670;DHT22;7423;48.722;9.350;2024-03-02T04:18:55;8.10;99.90
14670;DHT22;7423;48.722;9.350;2024-03-02T04:21:22;8.10;99.90
14670;DHT22;7423;48.722;9.350;2024-03-02T04:23:49;8.00;99.90
14670;DHT22;7423;48.722;9.350;2024-03-02T04:26:16;8.00;99.90
14670;DHT22;7423;48.722;9.350;2024-03-02T04:28:48;8.00;99.90
14670;DHT22;7423;48.722;9.350;2024-03-02T04:31:15;8.00;99.90
14670;DHT22;7423;48.722;9.350;2024-03-02T04:33:43;8.00;99.90
14670;DHT22;7423;48.722;9.350;2024-03-02T04:36:10;8.00;99.90
14670;DHT22;7423;48.722;9.350;2024-03-02T04:38:38;7.90;99.90
14670;DHT22;7423;48.722;9.350;2024-03-02T04:41:06;7.90;99.90
14670;DHT22;7423;48.722;9.350;2024-03-02T04:43:33;7.90;99.90
14670;DHT22;7423;48.722;9.350;2024-03-02T04:46:01;7.90;99.90
14670;DHT22;7423;48.722;9.350;2024-03-02T04:48:28;7.90;99.90
14670;DHT22;7423;48.722;9.350;2024-03-02T04:50:55;7.80;99.90
14670;DHT22;7423;48.722;9.350;2024-03-02T04:53:22;7.80;99.90
14670;DHT22;7423;48.722;9.350;2024-03-02T04:55:49;7.70;99.90
14670;DHT22;7423;48.722;9.350;2024-03-02T04:58:39;7.70;99.90
14670;DHT22;7423;48.722;9.350;2024-03-02T05:01:06;7.70;99.90
14670;DHT22;7423;48.722;9.350;2024-03-02T05:03:33;7.60;99.90
14670;DHT22;7423;48.722;9.350;2024-03-02T05:06:01;7.60;99.90
14670;DHT22;7423;48.722;9.350;2024-03-02T05:08:28;7.70;99.90
14670;DHT22;7423;48.722;9.350;2024-03-02T05:10:55;7.60;99.90
14670;DHT22;7423;48.722;9.350;2024-03-02T05:13:42;7.70;99.90
14670;DHT22;7423;48.722;9.350;2024-03-02T05:16:09;7.70;99.90
14670;DHT22;7423;48.722;9.350;2024-03-02T05:18:37;7.70;99.90
14670;DHT22;7423;48.722;9.350;2024-03-02T05:21:05;7.70;99.90
14670;DHT22;7423;48.722;9.350;2024-03-02T05:23:32;7.70;99.90
14670;DHT22;7423;48.722;9.350;2024-03-02T05:26:00;7.70;99.90
14670;DHT22;7423;48.722;9.350;2024-03-02T05:28:27;7.60;99.90
14670;DHT22;7423;48.722;9.350;2024-03-02T05:30:53;7.60;99.90
14670;DHT22;7423;48.722;9.350;2024-03-02T05:33:22;7.50;99.90
14670;DHT22;7423;48.722;9.350;2024-03-02T05:35:49;7.50;99.90
14670;DHT22;7423;48.722;9.350;2024-03-02T05:38:16;7.40;99.90
14670;DHT22;7423;48.722;9.350;2024-03-02T05:40:44;7.40;99.90
14670;DHT22;7423;48.722;9.350;2024-03-02T05:43:11;7.40;99.90
14670;DHT22;7423;48.722;9.350;2024-03-02T05:45:38;7.40;99.90
14670;DHT22;7423;48.722;9.350;2024-03-02T05:48:07;7.40;99.90
14670;DHT22;7423;48.722;9.350;2024-03-02T05:50:35;7.40;99.90
14670;DHT22;7423;48.722;9.350;2024-03-02T05:53:02;7.40;99.90
14670;DHT22;7423;48.722;9.350;2024-03-02T05:55:29;7.40;99.90
14670;DHT22;7423;48.722;9.350;2024-03-02T05:57:57;7.40;99.90
14670;DHT22;7423;48.722;9.350;2024-03-02T06:00:33;7.30;99.90
14670;DHT22;7423;48.722;9.350;2024-03-02T06:03:01;7.30;99.90
14670;DHT22;7423;48.722;9.350;2024-03-02T06:05:28;7.30;99.90
14670;DHT22;7423;48.722;9.350;2024-03-02T06:07:55;7.30;99.90
14670;DHT22;7423;48.722;9.350;2024-03-02T06:10:22;7.30;99.90
14670;DHT22;7423;48.722;9.350;2024-03-02T06:12:49;7.30;99.90
14670;DHT22;7423;48.722;9.350;2024-03-02T06:15:16;7.30;99.90
14670;DHT22;7423;48.722;9.350;2024-03-02T06:17:45;7.20;99.90
14670;DHT22;7423;48.722;9.350;2024-03-02T06:20:13;7.20;99.90
14670;DHT22;7423;48.722;9.350;2024-03-02T06:22:41;7.10;99.90
14670;DHT22;7423;48.722;9.350;2024-03-02T06:25:08;7.10;99.90
14670;DHT22;7423;48.722;9.350;2024-03-02T06:27:35;7.10;99.90
14670;DHT22;7423;48.722;9.350;2024-03-02T06:30:03;7.10;99.90
14670;DHT22;7423;48.722;9.350;2024-03-02T06:32:30;7.10;99.90
14670;DHT22;7423;48.722;9.350;2024-03-02T06:34:57;7.10;99.90
14670;DHT22;7423;48.722;9.350;2024-03-02T06:37:24;7.00;99.90
14670;DHT22;7423;48.722;9.350;2024-03-02T06:39:51;7.00;99.90
14670;DHT22;7423;48.722;9.350;2024-03-02T06:42:18;7.00;99.90
14670;DHT22;7423;48.722;9.350;2024-03-02T06:44:45;7.00;99.90
14670;DHT22;7423;48.722;9.350;2024-03-02T06:47:12;7.10;99.90
14670;DHT22;7423;48.722;9.350;2024-03-02T06:49:39;7.10;99.90
14670;DHT22;7423;48.722;9.350;2024-03-02T06:52:06;7.10;99.90
14670;DHT22;7423;48.722;9.350;2024-03-02T06:54:33;7.10;99.90
14670;DHT22;7423;48.722;9.350;2024-03-02T06:57:01;7.20;99.90
14670;DHT22;7423;48.722;9.350;2024-03-02T06:59:28;7.10;99.90
14670;DHT22;7423;48.722;9.350;2024-03-02T07:01:55;7.20;99.90
14670;DHT22;7423;48.722;9.350;2024-03-02T07:04:24;7.20;99.90
14670;DHT22;7423;48.722;9.350;2024-03-02T07:06:51;7.20;99.90
14670;DHT22;7423;48.722;9.350;2024-03-02T07:09:18;7.20;99.90
14670;DHT22;7423;48.722;9.350;2024-03-02T07:11:49;7.20;99.90
14670;DHT22;7423;48.722;9.350;2024-03-02T07:14:18;7.20;99.90
14670;DHT22;7423;48.722;9.350;2024-03-02T07:16:45;7.20;99.90
14670;DHT22;7423;48.722;9.350;2024-03-02T07:19:12;7.20;99.90
14670;DHT22;7423;48.722;9.350;2024-03-02T07:21:39;7.20;99.90
14670;DHT22;7423;48.722;9.350;2024-03-02T07:24:06;7.20;99.90
14670;DHT22;7423;48.722;9.350;2024-03-02T07:26:35;7.30;99.90
14670;DHT22;7423;48.722;9.350;2024-03-02T07:29:05;7.40;99.90
14670;DHT22;7423;48.722;9.350;2024-03-02T07:31:32;7.40;99.90
14670;DHT22;7423;48.722;9.350;2024-03-02T07:33:59;7.40;99.90
14670;DHT22;7423;48.722;9.350;2024-03-02T07:36:28;7.50;99.90
14670;DHT22;7423;48.722;9.350;2024-03-02T07:38:54;7.50;99.90
14670;DHT22;7423;48.722;9.350;2024-03-02T07:41:22;7.60;99.90
14670;DHT22;7423;48.722;9.350;2024-03-02T07:43:49;7.60;99.90
14670;DHT22;7423;48.722;9.350;2024-03-02T07:48:44;7.70;99.90
14670;DHT22;7423;48.722;9.350;2024-03-02T07:51:11;7.70;99.90
14670;DHT22;7423;48.722;9.350;2024-03-02T07:53:40;7.80;99.90
14670;DHT22;7423;48.722;9.350;2024-03-02T07:56:09;7.90;99.90
14670;DHT22;7423;48.722;9.350;2024-03-02T07:58:35;8.00;99.90
14670;DHT22;7423;48.722;9.350;2024-03-02T08:01:03;8.10;99.90
14670;DHT22;7423;48.722;9.350;2024-03-02T08:03:31;8.10;99.90
14670;DHT22;7423;48.722;9.350;2024-03-02T08:05:59;8.20;99.90
14670;DHT22;7423;48.722;9.350;2024-03-02T08:08:26;8.30;99.90
14670;DHT22;7423;48.722;9.350;2024-03-02T08:10:53;8.30;99.90
14670;DHT22;7423;48.722;9.350;2024-03-02T08:13:20;8.40;99.90
14670;DHT22;7423;48.722;9.350;2024-03-02T08:15:47;8.40;99.90
14670;DHT22;7423;48.722;9.350;2024-03-02T08:18:14;7.10;99.90
14670;DHT22;7423;48.722;9.350;2024-03-02T08:20:42;8.60;99.90
14670;DHT22;7423;48.722;9.350;2024-03-02T08:23:10;8.60;99.90
14670;DHT22;7423;48.722;9.350;2024-03-02T08:25:38;8.70;99.90
14670;DHT22;7423;48.722;9.350;2024-03-02T08:28:05;8.80;99.90
14670;DHT22;7423;48.722;9.350;2024-03-02T08:30:33;8.80;99.90
14670;DHT22;7423;48.722;9.350;2024-03-02T08:33:00;8.80;99.90
14670;DHT22;7423;48.722;9.350;2024-03-02T08:35:27;8.80;99.90
14670;DHT22;7423;48.722;9.350;2024-03-02T08:37:54;8.90;99.90
14670;DHT22;7423;48.722;9.350;2024-03-02T08:40:22;8.90;99.90
14670;DHT22;7423;48.722;9.350;2024-03-02T08:42:49;8.90;99.90
14670;DHT22;7423;48.722;9.350;2024-03-02T08:45:16;8.90;99.90
14670;DHT22;7423;48.722;9.350;2024-03-02T08:47:44;8.90;99.90
14670;DHT22;7423;48.722;9.350;2024-03-02T08:50:11;9.00;99.90
14670;DHT22;7423;48.722;9.350;2024-03-02T08:52:38;9.10;99.90
14670;DHT22;7423;48.722;9.350;2024-03-02T08:55:06;9.10;99.90
14670;DHT22;7423;48.722;9.350;2024-03-02T08:57:34;9.10;99.90
14670;DHT22;7423;48.722;9.350;2024-03-02T09:00:01;9.20;99.90
14670;DHT22;7423;48.722;9.350;2024-03-02T09:02:28;9.30;99.90
14670;DHT22;7423;48.722;9.350;2024-03-02T09:04:55;9.40;99.90
14670;DHT22;7423;48.722;9.350;2024-03-02T09:07:22;9.40;99.90
14670;DHT22;7423;48.722;9.350;2024-03-02T09:09:49;9.40;99.90
14670;DHT22;7423;48.722;9.350;2024-03-02T09:12:16;9.50;99.90
14670;DHT22;7423;48.722;9.350;2024-03-02T09:14:43;9.50;99.90
14670;DHT22;7423;48.722;9.350;2024-03-02T09:17:10;9.60;99.90
14670;DHT22;7423;48.722;9.350;2024-03-02T09:19:39;9.60;99.90
14670;DHT22;7423;48.722;9.350;2024-03-02T09:22:06;9.60;99.90
14670;DHT22;7423;48.722;9.350;2024-03-02T09:24:33;9.70;99.90
14670;DHT22;7423;48.722;9.350;2024-03-02T09:27:00;9.80;99.90
14670;DHT22;7423;48.722;9.350;2024-03-02T09:29:27;9.80;99.90
14670;DHT22;7423;48.722;9.350;2024-03-02T09:31:54;9.90;99.90
14670;DHT22;7423;48.722;9.350;2024-03-02T09:34:21;9.90;99.90
14670;DHT22;7423;48.722;9.350;2024-03-02T09:36:51;9.90;99.90
14670;DHT22;7423;48.722;9.350;2024-03-02T09:39:19;10.00;99.90
14670;DHT22;7423;48.722;9.350;2024-03-02T09:41:47;10.10;99.90
14670;DHT22;7423;48.722;9.350;2024-03-02T09:44:15;10.10;99.90
14670;DHT22;7423;48.722;9.350;2024-03-02T09:46:42;10.20;99.90
14670;DHT22;7423;48.722;9.350;2024-03-02T09:49:11;10.20;99.90
14670;DHT22;7423;48.722;9.350;2024-03-02T09:51:39;10.30;99.90
14670;DHT22;7423;48.722;9.350;2024-03-02T09:54:08;10.40;99.90
14670;DHT22;7423;48.722;9.350;2024-03-02T09:56:47;10.40;99.90
14670;DHT22;7423;48.722;9.350;2024-03-02T09:59:14;10.50;99.90
14670;DHT22;7423;48.722;9.350;2024-03-02T10:02:13;10.50;99.90
14670;DHT22;7423;48.722;9.350;2024-03-02T10:04:40;10.60;99.90
14670;DHT22;7423;48.722;9.350;2024-03-02T10:07:15;10.60;99.90
14670;DHT22;7423;48.722;9.350;2024-03-02T10:09:48;10.70;99.90
14670;DHT22;7423;48.722;9.350;2024-03-02T10:12:16;10.80;99.90
14670;DHT22;7423;48.722;9.350;2024-03-02T10:14:48;10.90;99.90
14670;DHT22;7423;48.722;9.350;2024-03-02T10:17:18;11.00;99.90
14670;DHT22;7423;48.722;9.350;2024-03-02T10:19:45;11.10;99.90
14670;DHT22;7423;48.722;9.350;2024-03-02T10:22:14;11.10;99.90
14670;DHT22;7423;48.722;9.350;2024-03-02T10:24:42;11.10;99.90
14670;DHT22;7423;48.722;9.350;2024-03-02T10:27:27;11.20;99.90
14670;DHT22;7423;48.722;9.350;2024-03-02T10:29:55;11.20;99.90
14670;DHT22;7423;48.722;9.350;2024-03-02T10:32:22;11.30;99.90
14670;DHT22;7423;48.722;9.350;2024-03-02T10:34:50;11.30;99.90
14670;DHT22;7423;48.722;9.350;2024-03-02T10:37:17;11.30;99.90
14670;DHT22;7423;48.722;9.350;2024-03-02T10:39:46;11.40;99.90
14670;DHT22;7423;48.722;9.350;2024-03-02T10:42:15;11.50;99.90
14670;DHT22;7423;48.722;9.350;2024-03-02T10:44:44;11.70;99.90
14670;DHT22;7423;48.722;9.350;2024-03-02T10:47:12;11.70;99.90
14670;DHT22;7423;48.722;9.350;2024-03-02T10:49:42;11.80;99.90
14670;DHT22;7423;48.722;9.350;2024-03-02T10:52:10;11.80;99.90
14670;DHT22;7423;48.722;9.350;2024-03-02T10:54:37;11.90;99.90
14670;DHT22;7423;48.722;9.350;2024-03-02T10:57:07;11.90;99.90
14670;DHT22;7423;48.722;9.350;2024-03-02T10:59:37;11.90;99.90
14670;DHT22;7423;48.722;9.350;2024-03-02T11:02:06;12.10;99.90
14670;DHT22;7423;48.722;9.350;2024-03-02T11:04:36;12.10;99.90
14670;DHT22;7423;48.722;9.350;2024-03-02T11:07:06;12.10;99.90
14670;DHT22;7423;48.722;9.350;2024-03-02T11:09:38;12.20;99.90
14670;DHT22;7423;48.722;9.350;2024-03-02T11:12:23;12.30;99.90
14670;DHT22;7423;48.722;9.350;2024-03-02T11:14:56;12.30;99.90
14670;DHT22;7423;48.722;9.350;2024-03-02T11:17:24;12.30;99.90
14670;DHT22;7423;48.722;9.350;2024-03-02T11:19:52;12.40;99.90
14670;DHT22;7423;48.722;9.350;2024-03-02T11:22:22;12.40;99.90
14670;DHT22;7423;48.722;9.350;2024-03-02T11:24:51;12.60;99.90
14670;DHT22;7423;48.722;9.350;2024-03-02T11:33:03;12.90;99.90
14670;DHT22;7423;48.722;9.350;2024-03-02T11:35:36;13.00;99.90
14670;DHT22;7423;48.722;9.350;2024-03-02T11:38:10;13.10;99.90
14670;DHT22;7423;48.722;9.350;2024-03-02T11:40:41;13.10;99.90
14670;DHT22;7423;48.722;9.350;2024-03-02T11:43:09;13.10;99.90
14670;DHT22;7423;48.722;9.350;2024-03-02T11:45:37;12.90;99.90
14670;DHT22;7423;48.722;9.350;2024-03-02T11:48:11;13.20;99.90
14670;DHT22;7423;48.722;9.350;2024-03-02T11:50:42;13.20;99.90
14670;DHT22;7423;48.722;9.350;2024-03-02T11:53:13;13.30;99.90
14670;DHT22;7423;48.722;9.350;2024-03-02T11:55:40;13.40;99.90
14670;DHT22;7423;48.722;9.350;2024-03-02T11:58:08;13.60;99.90
14670;DHT22;7423;48.722;9.350;2024-03-02T12:00:35;13.70;99.90
14670;DHT22;7423;48.722;9.350;2024-03-02T12:03:12;13.70;99.90
14670;DHT22;7423;48.722;9.350;2024-03-02T12:05:39;13.70;99.90
14670;DHT22;7423;48.722;9.350;2024-03-02T12:08:07;13.80;99.90
14670;DHT22;7423;48.722;9.350;2024-03-02T12:10:36;13.90;99.90
14670;DHT22;7423;48.722;9.350;2024-03-02T12:13:05;13.90;99.90
14670;DHT22;7423;48.722;9.350;2024-03-02T12:15:38;13.90;99.90
14670;DHT22;7423;48.722;9.350;2024-03-02T12:18:06;14.00;99.90
14670;DHT22;7423;48.722;9.350;2024-03-02T12:20:34;14.10;99.90
14670;DHT22;7423;48.722;9.350;2024-03-02T12:23:03;14.10;99.90
14670;DHT22;7423;48.722;9.350;2024-03-02T12:25:32;14.20;99.90
14670;DHT22;7423;48.722;9.350;2024-03-02T12:28:03;14.30;99.90
14670;DHT22;7423;48.722;9.350;2024-03-02T12:30:32;14.40;99.90
14670;DHT22;7423;48.722;9.350;2024-03-02T12:33:03;14.50;99.90
14670;DHT22;7423;48.722;9.350;2024-03-02T12:35:31;14.50;99.90
14670;DHT22;7423;48.722;9.350;2024-03-02T12:37:59;14.50;99.90
14670;DHT22;7423;48.722;9.350;2024-03-02T12:40:26;14.50;99.90
14670;DHT22;7423;48.722;9.350;2024-03-02T12:42:54;14.70;99.90
14670;DHT22;7423;48.722;9.350;2024-03-02T12:45:21;14.70;99.90
14670;DHT22;7423;48.722;9.350;2024-03-02T12:47:52;14.70;99.90
14670;DHT22;7423;48.722;9.350;2024-03-02T12:50:20;14.90;99.90
14670;DHT22;7423;48.722;9.350;2024-03-02T12:52:54;15.10;99.90
14670;DHT22;7423;48.722;9.350;2024-03-02T12:55:22;15.10;99.90
14670;DHT22;7423;48.722;9.350;2024-03-02T12:57:51;15.10;99.90
14670;DHT22;7423;48.722;9.350;2024-03-02T13:00:20;15.20;99.90
14670;DHT22;7423;48.722;9.350;2024-03-02T13:02:49;15.20;99.90
14670;DHT22;7423;48.722;9.350;2024-03-02T13:05:18;15.30;99.90
14670;DHT22;7423;48.722;9.350;2024-03-02T13:07:47;15.30;99.90
14670;DHT22;7423;48.722;9.350;2024-03-02T13:10:15;15.40;99.90
14670;DHT22;7423;48.722;9.350;2024-03-02T13:12:42;15.40;99.90
14670;DHT22;7423;48.722;9.350;2024-03-02T13:15:10;15.40;99.90
14670;DHT22;7423;48.722;9.350;2024-03-02T13:17:44;15.40;99.90
14670;DHT22;7423;48.722;9.350;2024-03-02T13:20:13;15.40;99.90
14670;DHT22;7423;48.722;9.350;2024-03-02T13:22:42;15.50;99.90
14670;DHT22;7423;48.722;9.350;2024-03-02T13:25:09;15.60;99.90
14670;DHT22;7423;48.722;9.350;2024-03-02T13:27:38;15.70;99.90
14670;DHT22;7423;48.722;9.350;2024-03-02T13:30:06;15.80;99.90
14670;DHT22;7423;48.722;9.350;2024-03-02T13:32:36;15.90;99.90
14670;DHT22;7423;48.722;9.350;2024-03-02T13:35:04;15.80;99.90
14670;DHT22;7423;48.722;9.350;2024-03-02T13:37:31;15.90;99.90
14670;DHT22;7423;48.722;9.350;2024-03-02T13:39:59;15.90;99.90
14670;DHT22;7423;48.722;9.350;2024-03-02T13:42:26;15.90;99.90
14670;DHT22;7423;48.722;9.350;2024-03-02T13:44:54;15.90;99.90
14670;DHT22;7423;48.722;9.350;2024-03-02T13:47:21;16.00;99.90
14670;DHT22;7423;48.722;9.350;2024-03-02T13:49:48;16.00;99.90
14670;DHT22;7423;48.722;9.350;2024-03-02T13:52:17;15.90;99.90
14670;DHT22;7423;48.722;9.350;2024-03-02T13:54:47;16.10;99.90
14670;DHT22;7423;48.722;9.350;2024-03-02T13:57:14;16.10;99.90
14670;DHT22;7423;48.722;9.350;2024-03-02T13:59:45;16.10;99.90
14670;DHT22;7423;48.722;9.350;2024-03-02T14:02:12;16.10;99.90
14670;DHT22;7423;48.722;9.350;2024-03-02T14:04:39;16.10;99.90
14670;DHT22;7423;48.722;9.350;2024-03-02T14:07:07;16.20;99.90
14670;DHT22;7423;48.722;9.350;2024-03-02T14:09:35;16.20;99.50
14670;DHT22;7423;48.722;9.350;2024-03-02T14:12:04;16.20;99.50
14670;DHT22;7423;48.722;9.350;2024-03-02T14:14:32;16.20;99.70
14670;DHT22;7423;48.722;9.350;2024-03-02T14:17:00;16.30;99.00
14670;DHT22;7423;48.722;9.350;2024-03-02T14:19:30;16.30;99.10
14670;DHT22;7423;48.722;9.350;2024-03-02T14:21:58;16.30;98.80
14670;DHT22;7423;48.722;9.350;2024-03-02T14:24:26;16.30;98.90
14670;DHT22;7423;48.722;9.350;2024-03-02T14:26:55;16.30;98.50
14670;DHT22;7423;48.722;9.350;2024-03-02T14:29:36;16.30;98.50
14670;DHT22;7423;48.722;9.350;2024-03-02T14:32:05;16.30;98.50
14670;DHT22;7423;48.722;9.350;2024-03-02T14:34:32;16.30;98.40
14670;DHT22;7423;48.722;9.350;2024-03-02T14:37:02;16.40;98.30
14670;DHT22;7423;48.722;9.350;2024-03-02T14:39:30;16.30;98.30
14670;DHT22;7423;48.722;9.350;2024-03-02T14:42:01;16.30;98.10
14670;DHT22;7423;48.722;9.350;2024-03-02T14:44:28;16.40;98.10
14670;DHT22;7423;48.722;9.350;2024-03-02T14:46:55;16.40;98.10
14670;DHT22;7423;48.722;9.350;2024-03-02T14:49:26;16.40;97.60
14670;DHT22;7423;48.722;9.350;2024-03-02T14:51:53;16.50;97.30
14670;DHT22;7423;48.722;9.350;2024-03-02T14:54:20;19.20;98.50
14670;DHT22;7423;48.722;9.350;2024-03-02T14:56:48;16.50;98.00
14670;DHT22;7423;48.722;9.350;2024-03-02T14:59:16;16.40;97.90
14670;DHT22;7423;48.722;9.350;2024-03-02T15:01:43;16.50;97.50
14670;DHT22;7423;48.722;9.350;2024-03-02T15:04:11;16.50;97.20
14670;DHT22;7423;48.722;9.350;2024-03-02T15:06:38;16.50;97.50
14670;DHT22;7423;48.722;9.350;2024-03-02T15:09:05;16.50;97.30
14670;DHT22;7423;48.722;9.350;2024-03-02T15:11:32;16.50;97.60
14670;DHT22;7423;48.722;9.350;2024-03-02T15:13:59;16.50;97.50
14670;DHT22;7423;48.722;9.350;2024-03-02T15:16:27;16.50;97.60
14670;DHT22;7423;48.722;9.350;2024-03-02T15:18:55;16.50;97.70
14670;DHT22;7423;48.722;9.350;2024-03-02T15:21:22;16.50;98.00
14670;DHT22;7423;48.722;9.350;2024-03-02T15:23:49;16.50;98.40
14670;DHT22;7423;48.722;9.350;2024-03-02T15:26:16;16.50;98.70
14670;DHT22;7423;48.722;9.350;2024-03-02T15:28:44;16.50;98.50
14670;DHT22;7423;48.722;9.350;2024-03-02T15:31:12;16.50;98.80
14670;DHT22;7423;48.722;9.350;2024-03-02T15:33:39;16.50;98.70
14670;DHT22;7423;48.722;9.350;2024-03-02T15:36:07;16.50;98.70
14670;DHT22;7423;48.722;9.350;2024-03-02T15:38:34;16.50;98.70
14670;DHT22;7423;48.722;9.350;2024-03-02T15:41:08;16.40;99.00
14670;DHT22;7423;48.722;9.350;2024-03-02T15:43:35;16.40;99.10
14670;DHT22;7423;48.722;9.350;2024-03-02T15:46:05;16.40;99.50
14670;DHT22;7423;48.722;9.350;2024-03-02T15:48:32;16.40;99.60
14670;DHT22;7423;48.722;9.350;2024-03-02T15:51:00;16.30;99.80
14670;DHT22;7423;48.722;9.350;2024-03-02T15:53:31;16.30;99.90
14670;DHT22;7423;48.722;9.350;2024-03-02T15:55:58;17.40;99.90
14670;DHT22;7423;48.722;9.350;2024-03-02T15:58:25;16.30;99.90
14670;DHT22;7423;48.722;9.350;2024-03-02T16:00:53;16.20;99.90
14670;DHT22;7423;48.722;9.350;2024-03-02T16:03:21;16.20;99.90
14670;DHT22;7423;48.722;9.350;2024-03-02T16:05:47;16.10;99.90
14670;DHT22;7423;48.722;9.350;2024-03-02T16:08:15;15.00;99.90
14670;DHT22;7423;48.722;9.350;2024-03-02T16:10:42;16.10;99.90